Time;durP1;ratioP1;P1;durP2;ratioP2;P2;SDS_P1;SDS_P2;PMS_P1;PMS_P2;Temp;Humidity;BMP_temperature;BMP_pressure;BME280_temperature;BME280_humidity;BME280_pressure;Samples;Min_cycle;Max_cycle;Signal;HPM_P1;HPM_P2
2022/07/09 08:43:10;;;;;;;5.47;1.63;;;;;;;;;;6295035;22;20132;-84
2022/07/09 08:47:02;;;;;;;;;;;;;;;;;;6243843;23;20523;-84
2022/07/09 08:51:25;;;;;;;4.10;1.55;;;;;;;;;;6153683;23;19934;-84
2022/07/09 08:53:58;;;;;;;5.38;1.73;;;;;;;;;;6174397;23;20038;-84
2022/07/09 08:56:27;;;;;;;3.03;1.70;;;;;;;;;;6239394;23;20816;-86
2022/07/09 08:59:13;;;;;;;3.63;1.50;;;;;;;;;;6177210;23;20028;-87
2022/07/09 09:02:19;;;;;;;4.07;1.60;;;;;;;;;;6201218;23;20371;-86
2022/07/09 09:08:44;;;;;;;2.92;1.40;;;;;;;;;;6214920;23;20103;-84
2022/07/09 09:17:43;;;;;;;3.72;1.30;;;;;;;;;;6241353;22;20022;-86
2022/07/09 09:21:08;;;;;;;3.50;1.30;;;;;;;;;;6288934;22;20082;-85
2022/07/09 09:23:58;;;;;;;2.85;1.25;;;;;;;;;;6282605;22;20026;-85
2022/07/09 09:26:49;;;;;;;3.28;1.42;;;;;;;;;;6318546;22;20097;-85
2022/07/09 09:29:21;;;;;;;4.05;1.40;;;;;;;;;;6404006;22;20614;-83
2022/07/09 09:31:50;;;;;;;4.97;1.40;;;;;;;;;;6402708;22;20025;-83
2022/07/09 09:34:19;;;;;;;5.57;1.25;;;;;;;;;;6362297;22;20026;-83
2022/07/09 09:37:00;;;;;;;2.83;1.15;;;;;;;;;;6402617;22;20013;-83
2022/07/09 09:39:29;;;;;;;3.67;1.10;;;;;;;;;;6364502;22;20070;-82
2022/07/09 09:42:00;;;;;;;4.68;1.20;;;;;;;;;;6364948;22;20471;-83
2022/07/09 09:44:39;;;;;;;4.40;1.75;;;;;;;;;;6365196;22;20442;-83
2022/07/09 09:47:13;;;;;;;4.00;1.10;;;;;;;;;;6376033;22;20528;-83
2022/07/09 09:49:41;;;;;;;2.40;1.00;;;;;;;;;;6404255;22;20078;-83
2022/07/09 09:52:10;;;;;;;5.55;1.33;;;;;;;;;;6403238;22;20017;-82
2022/07/09 09:54:46;;;;;;;4.50;1.13;;;;;;;;;;6365985;22;20399;-82
2022/07/09 09:57:14;;;;;;;3.33;1.00;;;;;;;;;;6364440;22;20136;-83
2022/07/09 09:59:44;;;;;;;2.65;1.27;;;;;;;;;;6404826;22;20047;-82
2022/07/09 10:02:12;;;;;;;3.83;1.17;;;;;;;;;;6401923;22;20413;-82
2022/07/09 10:04:46;;;;;;;5.53;1.17;;;;;;;;;;6376358;22;20555;-83
2022/07/09 10:07:15;;;;;;;2.33;1.10;;;;;;;;;;6418003;22;20029;-83
2022/07/09 10:09:57;;;;;;;2.35;1.10;;;;;;;;;;6405329;22;20057;-83
2022/07/09 10:12:27;;;;;;;1.90;1.05;;;;;;;;;;6403038;22;20060;-83
2022/07/09 10:15:22;;;;;;;4.10;1.00;;;;;;;;;;6405314;22;20814;-83
2022/07/09 10:17:49;;;;;;;4.40;2.05;;;;;;;;;;6402432;22;20022;-83
2022/07/09 10:20:28;;;;;;;5.68;2.20;;;;;;;;;;6403394;22;20017;-83
2022/07/09 10:22:55;;;;;;;7.07;2.20;;;;;;;;;;6391887;22;20036;-83
2022/07/09 10:25:29;;;;;;;5.68;1.13;;;;;;;;;;6403034;22;20028;-83
2022/07/09 10:27:58;;;;;;;4.43;1.30;;;;;;;;;;6403397;22;20014;-83
2022/07/09 10:30:30;;;;;;;3.88;1.20;;;;;;;;;;6403527;22;20408;-83
2022/07/09 10:33:08;;;;;;;3.88;1.30;;;;;;;;;;6401138;22;20730;-83
2022/07/09 10:35:43;;;;;;;5.30;1.63;;;;;;;;;;6402269;22;20017;-86
2022/07/09 10:38:38;;;;;;;3.13;1.00;;;;;;;;;;6375181;22;20048;-86
2022/07/09 10:41:59;;;;;;;2.97;1.02;;;;;;;;;;6416425;22;20017;-83
2022/07/09 10:45:26;;;;;;;2.00;0.77;;;;;;;;;;6364564;22;20017;-86
2022/07/09 10:48:58;;;;;;;5.80;1.33;;;;;;;;;;6417109;22;20446;-85
2022/07/09 10:52:06;;;;;;;2.92;1.10;;;;;;;;;;6376959;22;20445;-85
2022/07/09 10:54:48;;;;;;;3.35;1.45;;;;;;;;;;6402222;22;20030;-83
2022/07/09 11:26:17;;;;;;;3.10;0.80;;;;;;;;;;6359540;22;20101;-85
2022/07/09 11:28:59;;;;;;;2.72;0.95;;;;;;;;;;6338718;22;20722;-85
2022/07/09 11:37:27;;;;;;;4.30;0.80;;;;;;;;;;6309218;22;20098;-88
2022/07/09 12:14:13;;;;;;;2.85;0.98;;;;;;;;;;6304377;22;20088;-83
2022/07/09 12:16:57;;;;;;;3.10;1.00;;;;;;;;;;6401128;22;20018;-84
2022/07/09 12:19:29;;;;;;;4.13;0.98;;;;;;;;;;6402870;22;20014;-84
2022/07/09 12:22:11;;;;;;;4.80;0.85;;;;;;;;;;6375598;22;20018;-84
2022/07/09 12:25:04;;;;;;;3.03;0.98;;;;;;;;;;6373042;22;20680;-84
2022/07/09 12:27:46;;;;;;;4.65;0.75;;;;;;;;;;6401925;22;20359;-84
2022/07/09 12:31:18;;;;;;;3.17;0.80;;;;;;;;;;6359031;22;20117;-87
2022/07/09 12:35:09;;;;;;;4.47;1.45;;;;;;;;;;6363276;22;20015;-85
2022/07/09 12:37:55;;;;;;;3.43;1.00;;;;;;;;;;6315831;22;20036;-85
2022/07/09 13:01:12;;;;;;;4.18;1.60;;;;;;;;;;6286131;22;20022;-83
2022/07/09 13:04:40;;;;;;;5.35;1.20;;;;;;;;;;6273064;22;20126;-84
2022/07/09 13:10:19;;;;;;;4.82;1.42;;;;;;;;;;6244146;22;20390;-83
2022/07/09 13:12:47;;;;;;;3.90;0.90;;;;;;;;;;6362643;22;20038;-83
2022/07/09 13:15:24;;;;;;;3.65;1.20;;;;;;;;;;6310276;22;20087;-84
2022/07/09 13:17:56;;;;;;;4.75;0.95;;;;;;;;;;6312385;22;20026;-85
2022/07/09 13:20:42;;;;;;;4.97;1.58;;;;;;;;;;6374582;22;20022;-84
2022/07/09 13:23:39;;;;;;;3.35;1.00;;;;;;;;;;6349976;22;20049;-85
2022/07/09 13:31:56;;;;;;;2.03;0.65;;;;;;;;;;6261131;22;20016;-88
2022/07/09 13:34:41;;;;;;;4.18;1.00;;;;;;;;;;6253893;22;20057;-84
2022/07/09 13:37:09;;;;;;;3.88;1.50;;;;;;;;;;6276539;22;20023;-84
2022/07/09 13:39:37;;;;;;;8.05;1.20;;;;;;;;;;6266094;22;20031;-84
2022/07/09 13:42:19;;;;;;;4.97;0.98;;;;;;;;;;6309445;22;20027;-84
2022/07/09 13:44:51;;;;;;;4.20;1.00;;;;;;;;;;6289776;22;20379;-83
2022/07/09 13:47:59;;;;;;;7.30;0.93;;;;;;;;;;6282877;22;20027;-83
2022/07/09 13:50:39;;;;;;;6.40;1.00;;;;;;;;;;6272455;22;20029;-82
2022/07/09 13:53:22;;;;;;;2.58;0.75;;;;;;;;;;6294206;22;20035;-82
2022/07/09 13:55:54;;;;;;;3.75;1.08;;;;;;;;;;6261688;22;20479;-83
2022/07/09 13:58:21;;;;;;;3.97;1.10;;;;;;;;;;6277300;22;20023;-83
2022/07/09 14:01:09;;;;;;;3.72;1.15;;;;;;;;;;6276706;22;20030;-86
2022/07/09 14:04:47;;;;;;;3.22;0.90;;;;;;;;;;6310787;22;20023;-85
2022/07/09 14:07:47;;;;;;;2.28;0.90;;;;;;;;;;6309528;22;20026;-84
2022/07/09 14:10:29;;;;;;;6.80;1.55;;;;;;;;;;6287771;22;20023;-84
2022/07/09 14:13:20;;;;;;;8.88;1.20;;;;;;;;;;6311290;22;20019;-84
2022/07/09 14:22:34;;;;;;;4.95;1.05;;;;;;;;;;6097969;23;20158;-83
2022/07/09 14:26:06;;;;;;;5.30;1.30;;;;;;;;;;6144413;23;20205;-83
2022/07/09 14:28:33;;;;;;;4.85;1.23;;;;;;;;;;6159473;23;20025;-84
2022/07/09 14:31:08;;;;;;;6.93;1.50;;;;;;;;;;6147471;23;20057;-84
2022/07/09 14:33:41;;;;;;;3.47;1.00;;;;;;;;;;6159814;23;20410;-83
2022/07/09 14:36:09;;;;;;;5.50;1.75;;;;;;;;;;6160469;23;20060;-83
2022/07/09 14:38:37;;;;;;;4.10;1.00;;;;;;;;;;6186595;23;20033;-83
2022/07/09 14:41:05;;;;;;;4.93;1.30;;;;;;;;;;6156407;23;20029;-83
2022/07/09 14:43:34;;;;;;;5.18;1.02;;;;;;;;;;6167096;23;20031;-83
2022/07/09 14:46:01;;;;;;;4.25;0.90;;;;;;;;;;6191018;23;20108;-83
2022/07/09 14:48:29;;;;;;;6.43;1.20;;;;;;;;;;6192256;23;20361;-83
2022/07/09 14:51:22;;;;;;;7.80;1.05;;;;;;;;;;6158284;23;20044;-84
2022/07/09 14:53:49;;;;;;;3.13;1.00;;;;;;;;;;6230997;22;20042;-83
2022/07/09 14:56:22;;;;;;;5.20;0.98;;;;;;;;;;6259067;22;20030;-83
2022/07/09 14:58:50;;;;;;;4.85;1.00;;;;;;;;;;6309088;22;20023;-83
2022/07/09 15:01:22;;;;;;;8.05;1.30;;;;;;;;;;6344808;22;20071;-83
2022/07/09 15:03:55;;;;;;;4.50;1.13;;;;;;;;;;6320077;22;20022;-83
2022/07/09 15:06:27;;;;;;;6.88;1.00;;;;;;;;;;6345990;22;20549;-82
2022/07/09 15:09:19;;;;;;;7.22;1.30;;;;;;;;;;6337952;22;20014;-83
2022/07/09 15:11:47;;;;;;;4.38;1.10;;;;;;;;;;6411925;22;20066;-84
2022/07/09 15:14:20;;;;;;;6.75;1.05;;;;;;;;;;6384535;22;20018;-83
2022/07/09 15:16:47;;;;;;;3.80;0.80;;;;;;;;;;6376092;22;20030;-83
2022/07/09 15:19:20;;;;;;;7.30;1.08;;;;;;;;;;6399654;22;20070;-82
2022/07/09 15:21:47;;;;;;;6.40;1.10;;;;;;;;;;6402005;22;20082;-83
2022/07/09 15:24:19;;;;;;;4.75;1.10;;;;;;;;;;6407553;22;20018;-83
2022/07/09 15:26:49;;;;;;;4.85;1.10;;;;;;;;;;6403128;22;20127;-83
2022/07/09 15:29:15;;;;;;;6.03;0.82;;;;;;;;;;6401384;22;20337;-83
2022/07/09 15:31:47;;;;;;;4.93;1.10;;;;;;;;;;6423679;22;20086;-83
2022/07/09 15:34:15;;;;;;;5.47;1.10;;;;;;;;;;6370136;22;20018;-83
2022/07/09 15:36:43;;;;;;;4.85;0.93;;;;;;;;;;6423530;22;20657;-83
2022/07/09 15:39:15;;;;;;;6.93;1.25;;;;;;;;;;6360336;22;20063;-82
2022/07/09 15:41:43;;;;;;;2.83;0.95;;;;;;;;;;6385984;22;20018;-83
2022/07/09 15:44:13;;;;;;;4.47;0.90;;;;;;;;;;6384129;22;20026;-82
2022/07/09 15:46:41;;;;;;;9.05;1.00;;;;;;;;;;6395541;22;20062;-82
2022/07/09 15:49:33;;;;;;;2.67;0.98;;;;;;;;;;6422236;22;20027;-82
2022/07/09 15:52:05;;;;;;;4.32;0.88;;;;;;;;;;6423106;22;20017;-82
2022/07/09 15:54:33;;;;;;;4.80;0.75;;;;;;;;;;6397122;22;20237;-82
2022/07/09 15:57:02;;;;;;;3.63;0.93;;;;;;;;;;6397077;22;20043;-82
2022/07/09 15:59:30;;;;;;;6.55;1.20;;;;;;;;;;6396236;22;20014;-82
2022/07/09 16:02:02;;;;;;;5.10;1.00;;;;;;;;;;6394828;22;20399;-82
2022/07/09 16:04:29;;;;;;;4.18;0.95;;;;;;;;;;6396847;22;20044;-82
2022/07/09 16:06:57;;;;;;;5.45;0.80;;;;;;;;;;6416636;22;20048;-81
2022/07/09 16:09:26;;;;;;;5.18;1.10;;;;;;;;;;6413552;22;20350;-86
2022/07/09 16:15:21;;;;;;;5.72;0.90;;;;;;;;;;6282989;22;20536;-84
2022/07/09 16:18:14;;;;;;;4.85;0.77;;;;;;;;;;6285778;22;20024;-85
2022/07/09 17:21:32;;;;;;;3.72;0.82;;;;;;;;;;6405935;22;20009;-85
2022/07/09 17:24:38;;;;;;;6.10;1.10;;;;;;;;;;6407703;22;20020;-86
2022/07/09 17:28:06;;;;;;;5.93;1.40;;;;;;;;;;6309704;22;20022;-88
2022/07/09 17:30:58;;;;;;;5.05;1.00;;;;;;;;;;6324198;22;20053;-89
2022/07/09 17:34:24;;;;;;;4.05;1.20;;;;;;;;;;6311282;22;20026;-88
2022/07/09 17:38:59;;;;;;;5.68;1.00;;;;;;;;;;6299168;22;20011;-88
2022/07/09 17:42:06;;;;;;;9.07;1.20;;;;;;;;;;6243226;22;20037;-86
2022/07/09 17:44:58;;;;;;;7.10;1.05;;;;;;;;;;6249047;22;20037;-86
2022/07/09 17:48:58;;;;;;;5.85;1.30;;;;;;;;;;6273681;22;20023;-88
2022/07/09 17:53:37;;;;;;;5.85;0.77;;;;;;;;;;6295094;22;20023;-86
2022/07/09 17:57:42;;;;;;;5.85;1.20;;;;;;;;;;6181652;23;20396;-87
2022/07/09 18:00:29;;;;;;;5.07;1.13;;;;;;;;;;6142061;23;20844;-87
2022/07/09 18:03:12;;;;;;;7.45;1.08;;;;;;;;;;6062096;23;20498;-85
2022/07/09 18:06:01;;;;;;;5.45;1.50;;;;;;;;;;6061686;23;20060;-83
2022/07/09 18:08:37;;;;;;;8.32;2.65;;;;;;;;;;6127243;23;20026;-82
2022/07/09 18:11:06;;;;;;;10.45;2.17;;;;;;;;;;6127218;23;20040;-83
2022/07/09 18:13:47;;;;;;;5.35;1.30;;;;;;;;;;6086934;23;20113;-83
2022/07/09 18:16:30;;;;;;;7.53;1.40;;;;;;;;;;6126715;23;20033;-84
2022/07/09 18:20:35;;;;;;;5.57;1.10;;;;;;;;;;6124989;23;20029;-85
2022/07/09 18:28:56;;;;;;;5.30;1.70;;;;;;;;;;6177975;23;20595;-85
2022/07/09 18:31:33;;;;;;;10.88;1.60;;;;;;;;;;6202103;23;20111;-83
2022/07/09 18:34:03;;;;;;;3.80;1.17;;;;;;;;;;6188974;22;20031;-83
2022/07/09 18:36:31;;;;;;;6.38;1.55;;;;;;;;;;6225293;22;20030;-83
2022/07/09 18:42:23;;;;;;;9.23;1.08;;;;;;;;;;6274424;22;20027;-83
2022/07/09 18:45:15;;;;;;;4.32;1.70;;;;;;;;;;6345298;22;20021;-84
2022/07/09 18:47:49;;;;;;;5.13;1.25;;;;;;;;;;6341195;22;20026;-83
2022/07/09 18:50:18;;;;;;;5.72;1.10;;;;;;;;;;6376871;22;20030;-84
2022/07/09 18:53:09;;;;;;;5.90;1.13;;;;;;;;;;6402074;22;20017;-83
2022/07/09 18:55:41;;;;;;;5.35;1.33;;;;;;;;;;6403013;22;20423;-83
